Kaministiqua — CFN4612 — position and weather

sailwx.info

Track history (hours):
 
Tides and Currents Weather Stations Pressure Air Temp Water Temp Dewpoint Dewpoint Depression Visibility Wind Speed Wind Dir Waves Ship Positions

Kaministiqua

Last reported at 2014-Sep-28 04:32 UTC. Time now 2014-Oct-02 12:42 UTC.
Position N 46°55' W 085°06'.

Length 223 m; draft 8.1 m.

Type: Cargo ship. MMSI: 316009457.

Date/timePositionNaut miles runAvg speedWind from/ knotsBaromVisibWave heightAir tempDewpointWater temp
2014-Sep-28 04:32N 46°55' W 085°06'1212.2
2014-Sep-28 03:33N 46°49' W 084°51'1211.9
2014-Sep-28 02:33N 46°38' W 084°45'1212.0
2014-Sep-28 01:33N 46°28' W 084°34'8 8.2
2014-Sep-28 00:33N 46°30' W 084°23'21 5.1
2014-Sep-27 20:29N 46°12' W 084°07'2010.1
2014-Sep-27 18:31N 45°55' W 083°53'1612.6
2014-Sep-27 17:14N 45°43' W 083°38'2312.3
2014-Sep-27 15:22N 45°25' W 083°18'1012.4
2014-Sep-27 14:33N 45°17' W 083°09'204 7.0
2014-Sep-26 09:14N 42°04' W 081°35'6412.4
2014-Sep-26 04:03N 42°27' W 080°14'2112.3
2014-Sep-26 02:21N 42°36' W 079°49'1112.3
2014-Sep-26 01:28N 42°42' W 079°36'159 6.1
2014-Sep-24 23:33N 44°02' W 076°27'1111.3
2014-Sep-24 22:33N 44°12' W 076°19'92 7.4
2014-Sep-24 10:12N 45°04' W 074°32'6 8.6
2014-Sep-24 09:33N 45°08' W 074°27'1110.5
2014-Sep-24 08:33N 45°14' W 074°15'9 8.7
2014-Sep-24 07:33N 45°13' W 074°02'7 6.7
2014-Sep-24 06:31N 45°18' W 073°56'1 0.8
2014-Sep-24 05:32N 45°19' W 073°55'0 0.4
2014-Sep-24 04:31N 45°19' W 073°55'2 2.4
2014-Sep-24 03:33N 45°21' W 073°52'9 8.8
2014-Sep-24 02:33N 45°25' W 073°41'5 5.1
2014-Sep-24 01:32N 45°24' W 073°34'1 1.4
2014-Sep-24 00:32N 45°25' W 073°32'4 4.1
2014-Sep-23 23:33N 45°28' W 073°30'2 1.8
2014-Sep-23 22:30N 45°30' W 073°31'3 3.2
2014-Sep-23 21:33N 45°33' W 073°31'7 6.9
2014-Sep-23 20:33N 45°40' W 073°28'9 8.9
2014-Sep-23 19:33N 45°47' W 073°21'9 9.2
2014-Sep-23 18:33N 45°55' W 073°13'9 8.7
2014-Sep-23 17:32N 46°03' W 073°09'  
2014-Sep-19 07:27N 46°03' W 073°07'0 0.0
2014-Sep-19 05:32N 46°03' W 073°07'7 0.5
2014-Sep-18 16:28N 45°58' W 073°12'1112.4
2014-Sep-18 15:33N 45°48' W 073°20'1212.2
2014-Sep-18 14:33N 45°37' W 073°30'8 7.8
2014-Sep-18 13:33N 45°30' W 073°31'1 0.9
2014-Sep-18 12:33N 45°29' W 073°31'5 4.6
2014-Sep-18 11:33N 45°24' W 073°33'2 1.6
2014-Sep-18 10:33N 45°24' W 073°35'4 4.0
2014-Sep-18 09:33N 45°25' W 073°40'5 4.9
2014-Sep-18 08:33N 45°24' W 073°47'6 5.5
2014-Sep-18 07:33N 45°20' W 073°53'2 2.4
2014-Sep-18 06:33N 45°19' W 073°55'1 1.3
2014-Sep-18 05:33N 45°17' W 073°56'5 4.5
2014-Sep-18 04:33N 45°14' W 074°00'  
Track history (hours):
 
Tides and Currents Weather Stations Pressure Air Temp Water Temp Dewpoint Dewpoint Depression Visibility Wind Speed Wind Dir Waves Ship Positions

Kaministiqua

Last reported at 2014-Sep-28 04:32 UTC. Time now 2014-Oct-02 12:42 UTC.
Position N 46°55' W 085°06'.

Length 223 m; draft 8.1 m.

Type: Cargo ship. MMSI: 316009457.

Date/timePositionNaut miles runAvg speedWind from/ knotsBaromVisibWave heightAir tempDewpointWater temp
2014-Sep-28 04:32N 46°55' W 085°06'1212.2
2014-Sep-28 03:33N 46°49' W 084°51'1211.9
2014-Sep-28 02:33N 46°38' W 084°45'1212.0
2014-Sep-28 01:33N 46°28' W 084°34'8 8.2
2014-Sep-28 00:33N 46°30' W 084°23'21 5.1
2014-Sep-27 20:29N 46°12' W 084°07'2010.1
2014-Sep-27 18:31N 45°55' W 083°53'1612.6
2014-Sep-27 17:14N 45°43' W 083°38'2312.3
2014-Sep-27 15:22N 45°25' W 083°18'1012.4
2014-Sep-27 14:33N 45°17' W 083°09'204 7.0
2014-Sep-26 09:14N 42°04' W 081°35'6412.4
2014-Sep-26 04:03N 42°27' W 080°14'2112.3
2014-Sep-26 02:21N 42°36' W 079°49'1112.3
2014-Sep-26 01:28N 42°42' W 079°36'159 6.1
2014-Sep-24 23:33N 44°02' W 076°27'1111.3
2014-Sep-24 22:33N 44°12' W 076°19'92 7.4
2014-Sep-24 10:12N 45°04' W 074°32'6 8.6
2014-Sep-24 09:33N 45°08' W 074°27'1110.5
2014-Sep-24 08:33N 45°14' W 074°15'9 8.7
2014-Sep-24 07:33N 45°13' W 074°02'7 6.7
2014-Sep-24 06:31N 45°18' W 073°56'1 0.8
2014-Sep-24 05:32N 45°19' W 073°55'0 0.4
2014-Sep-24 04:31N 45°19' W 073°55'2 2.4
2014-Sep-24 03:33N 45°21' W 073°52'9 8.8
2014-Sep-24 02:33N 45°25' W 073°41'5 5.1
2014-Sep-24 01:32N 45°24' W 073°34'1 1.4
2014-Sep-24 00:32N 45°25' W 073°32'4 4.1
2014-Sep-23 23:33N 45°28' W 073°30'2 1.8
2014-Sep-23 22:30N 45°30' W 073°31'3 3.2
2014-Sep-23 21:33N 45°33' W 073°31'7 6.9
2014-Sep-23 20:33N 45°40' W 073°28'9 8.9
2014-Sep-23 19:33N 45°47' W 073°21'9 9.2
2014-Sep-23 18:33N 45°55' W 073°13'9 8.7
2014-Sep-23 17:32N 46°03' W 073°09'  
2014-Sep-19 07:27N 46°03' W 073°07'0 0.0
2014-Sep-19 05:32N 46°03' W 073°07'7 0.5
2014-Sep-18 16:28N 45°58' W 073°12'1112.4
2014-Sep-18 15:33N 45°48' W 073°20'1212.2
2014-Sep-18 14:33N 45°37' W 073°30'8 7.8
2014-Sep-18 13:33N 45°30' W 073°31'1 0.9
2014-Sep-18 12:33N 45°29' W 073°31'5 4.6
2014-Sep-18 11:33N 45°24' W 073°33'2 1.6
2014-Sep-18 10:33N 45°24' W 073°35'4 4.0
2014-Sep-18 09:33N 45°25' W 073°40'5 4.9
2014-Sep-18 08:33N 45°24' W 073°47'6 5.5
2014-Sep-18 07:33N 45°20' W 073°53'2 2.4
2014-Sep-18 06:33N 45°19' W 073°55'1 1.3
2014-Sep-18 05:33N 45°17' W 073°56'5 4.5
2014-Sep-18 04:33N 45°14' W 074°00'  

Dump ship's entire track history